LFRS 211130Z AUTO 05009KT 010V080 CAVOK 06/01 Q1039 NOSIG

ElémentsDécodage
LFRS Station météo située sur l'aérodrome de NANTES Atlantique
211130Z émis le 21 du mois à 11h30 UTC
AUTO Bulletin édité par un automate
05009KT vent du 050°, 09 noeuds
010V080 vent de direction variable entre 010° et 080°
CAVOK Ceiling And Visibility OK
- Visibilité de 10 Km ou plus
- Pas de nuage au-dessous de 1500m ou au-dessous de l'altitude minimale du secteur la plus élevée (si>1500m) et absence de CB
- pas de temps présent significatif
06/01 température 06°C, point de rosée 01°C
 soit une humidité relative de 70%
Q1039 la pression au niveau de la mer (QNH) est de 1039 hPa
NOSIG Pas de changement significatif prévu au cours des deux heures suivant l'heure de l'observation